createdAt,value
2019-04-29T00:03:55.523Z,6.9
2019-04-29T00:08:51.752Z,7.7
2019-04-29T00:13:48.187Z,7.2
2019-04-29T00:18:44.544Z,7.6
2019-04-29T00:23:40.756Z,7.2
2019-04-29T00:28:36.906Z,7
2019-04-29T00:33:33.261Z,7.1
2019-04-29T00:38:29.495Z,6.9
2019-04-29T00:43:25.634Z,7.4
2019-04-29T00:48:21.752Z,6.9
2019-04-29T00:53:18.041Z,6.8
2019-04-29T00:58:14.370Z,7
2019-04-29T01:03:10.756Z,7.2
2019-04-29T01:08:07.062Z,6.9
2019-04-29T01:13:02.913Z,7
2019-04-29T01:17:59.033Z,7.3
2019-04-29T01:22:55.305Z,6.9
2019-04-29T01:27:51.469Z,7.3
2019-04-29T01:32:47.724Z,7.3
2019-04-29T01:37:44.035Z,6.8
2019-04-29T01:42:40.336Z,7.2
2019-04-29T01:47:36.129Z,7.3
2019-04-29T01:52:32.284Z,7.1
2019-04-29T01:57:28.376Z,6.7
2019-04-29T02:02:24.658Z,6.5
2019-04-29T02:07:20.806Z,6.3
2019-04-29T02:12:16.424Z,5.7
2019-04-29T02:17:11.912Z,6.2
2019-04-29T02:22:08.091Z,6.3
2019-04-29T02:27:05.757Z,6.4
2019-04-29T02:31:59.935Z,6.5
2019-04-29T02:36:56.347Z,6.5
2019-04-29T02:41:52.516Z,6.5
2019-04-29T02:46:48.808Z,6.8
2019-04-29T02:51:45.021Z,6.6
2019-04-29T02:56:41.145Z,6.4
2019-04-29T03:01:36.913Z,6
2019-04-29T03:06:32.874Z,5.9
2019-04-29T03:11:28.593Z,5.8
2019-04-29T03:16:24.236Z,6
2019-04-29T03:21:20.118Z,6.4
2019-04-29T03:26:16.277Z,6.4
2019-04-29T03:31:12.636Z,6.4
2019-04-29T03:36:08.878Z,6.4
2019-04-29T03:41:05.324Z,6.4
2019-04-29T03:46:01.070Z,6.7
2019-04-29T03:50:57.341Z,7.1
2019-04-29T03:55:53.672Z,6.9
2019-04-29T04:00:49.998Z,7.6
2019-04-29T04:05:46.447Z,7.4
2019-04-29T04:10:42.601Z,7.6
2019-04-29T04:15:39.230Z,8.1
2019-04-29T04:20:35.787Z,8.5
2019-04-29T04:25:32.573Z,9.2
2019-04-29T04:30:28.953Z,9.2
2019-04-29T04:35:25.509Z,9.3
2019-04-29T04:40:22.261Z,10.5
2019-04-29T04:45:19.260Z,11
2019-04-29T04:50:16.357Z,12
2019-04-29T04:55:13.537Z,12.4
2019-04-29T05:00:10.731Z,12.9
2019-04-29T05:05:07.944Z,13
2019-04-29T05:10:04.979Z,13.9
2019-04-29T05:15:02.172Z,15.6
2019-04-29T05:20:00.011Z,16.3
2019-04-29T05:24:57.472Z,16.8
2019-04-29T05:29:54.077Z,15.5
2019-04-29T05:34:50.713Z,16
2019-04-29T05:39:47.682Z,16.1
2019-04-29T05:44:44.977Z,17.1
2019-04-29T05:49:42.799Z,18.9
2019-04-29T05:54:39.633Z,18.9
2019-04-29T05:59:36.647Z,20.1
2019-04-29T06:04:34.142Z,20.7
2019-04-29T06:09:31.561Z,21.3
2019-04-29T06:14:29.157Z,22.3
2019-04-29T06:19:26.627Z,22.6
2019-04-29T06:24:23.970Z,23.9
2019-04-29T06:29:19.932Z,24
2019-04-29T06:34:16.374Z,23.2
2019-04-29T06:39:12.832Z,22.3
2019-04-29T06:44:15.882Z,22
2019-04-29T06:49:09.814Z,22.5
2019-04-29T06:53:59.401Z,22.1
2019-04-29T06:58:55.499Z,21.9
2019-04-29T07:03:55.684Z,23.1
2019-04-29T07:08:47.753Z,22.1
2019-04-29T07:13:46.558Z,23.6
2019-04-29T07:18:47.860Z,23.5
2019-04-29T07:23:38.505Z,23.5
2019-04-29T07:28:35.729Z,25.3
2019-04-29T07:33:33.150Z,25.4
2019-04-29T07:38:40.459Z,26.1
2019-04-29T07:43:27.607Z,27.5
2019-04-29T07:48:25.540Z,30.8
2019-04-29T07:53:34.303Z,33.8
2019-04-29T07:58:27.183Z,31.5
2019-04-29T08:03:20.317Z,26.9
2019-04-29T08:08:20.876Z,27
2019-04-29T08:13:13.272Z,27.7
2019-04-29T08:18:11.234Z,26.7
2019-04-29T08:23:06.621Z,28.2
2019-04-29T08:28:02.840Z,29.5
2019-04-29T08:32:59.880Z,27.3
2019-04-29T08:37:56.147Z,28.1
2019-04-29T08:42:53.047Z,29.8
2019-04-29T08:47:50.100Z,29.4
2019-04-29T08:52:47.363Z,30.8
2019-04-29T08:57:44.597Z,29.9
2019-04-29T09:02:46.893Z,30.3
2019-04-29T09:07:38.461Z,28.1
2019-04-29T09:12:34.753Z,28
2019-04-29T09:17:30.761Z,31.8
2019-04-29T09:22:27.543Z,29.7
2019-04-29T09:27:24.955Z,29.6
2019-04-29T09:32:21.926Z,31.2
2019-04-29T09:37:22.794Z,29.5
2019-04-29T09:42:15.780Z,27.6
2019-04-29T09:47:12.341Z,30.5
2019-04-29T09:52:09.593Z,30.5
2019-04-29T09:57:06.930Z,32.1
2019-04-29T10:02:04.370Z,33
2019-04-29T10:07:04.976Z,30.7
2019-04-29T10:11:59.690Z,24.5
2019-04-29T10:16:54.638Z,28.4
2019-04-29T10:21:50.842Z,22.4
2019-04-29T10:26:46.040Z,25
2019-04-29T10:31:42.099Z,26.1
2019-04-29T10:36:38.148Z,23.2
2019-04-29T10:41:35.925Z,29.8
2019-04-29T10:46:32.225Z,24.7
2019-04-29T10:51:29.050Z,28.6
2019-04-29T10:56:27.049Z,25.2
2019-04-29T11:01:23.480Z,24.4
2019-04-29T11:06:19.295Z,25.5
2019-04-29T11:11:22.441Z,25.6
2019-04-29T11:16:12.475Z,25.5
2019-04-29T11:21:09.338Z,25.5
2019-04-29T11:26:05.663Z,27.3
2019-04-29T11:31:02.971Z,30.4
2019-04-29T11:36:03.785Z,27.2
2019-04-29T11:40:57.488Z,27.5
2019-04-29T11:45:54.051Z,28.3
2019-04-29T11:50:54.660Z,24.9
2019-04-29T11:55:46.548Z,29.6
2019-04-29T12:00:44.244Z,28.7
2019-04-29T12:05:44.741Z,26.2
2019-04-29T12:10:37.822Z,23.5
2019-04-29T12:15:32.087Z,23.7
2019-04-29T12:20:27.609Z,26.4
2019-04-29T12:25:27.368Z,25.3
2019-04-29T12:30:20.990Z,23.8
2019-04-29T12:35:21.492Z,23.3
2019-04-29T12:40:14.381Z,23.5
2019-04-29T12:45:19.154Z,24.8
2019-04-29T12:50:06.366Z,24.7
2019-04-29T12:55:19.167Z,26.2
2019-04-29T13:00:00.347Z,26.3
2019-04-29T13:04:57.659Z,27.7
2019-04-29T13:09:55.620Z,26.8
2019-04-29T13:15:02.472Z,26.5
2019-04-29T13:20:00.505Z,26.7
2019-04-29T13:24:46.507Z,25.1
2019-04-29T13:29:43.240Z,25.8
2019-04-29T13:34:39.983Z,25.3
2019-04-29T13:39:39.563Z,25.3
2019-04-29T13:44:32.730Z,24.7
2019-04-29T13:49:28.957Z,24.7
2019-04-29T13:54:25.489Z,24.4
2019-04-29T13:59:21.419Z,24.2
2019-04-29T14:04:24.139Z,23.5
2019-04-29T14:09:13.938Z,23.9
2019-04-29T14:14:09.954Z,23.5
2019-04-29T14:19:08.592Z,23.7
2019-04-29T14:24:02.611Z,23
2019-04-29T14:28:58.780Z,22.6
2019-04-29T14:33:55.754Z,22
2019-04-29T14:38:50.552Z,23
2019-04-29T14:43:50.494Z,22.8
2019-04-29T14:48:43.194Z,21.9
2019-04-29T14:53:39.470Z,21.1
2019-04-29T14:58:35.492Z,21
2019-04-29T15:03:31.324Z,20.4
2019-04-29T15:08:27.724Z,20.3
2019-04-29T15:13:23.805Z,20.1
2019-04-29T15:18:25.703Z,20.6
2019-04-29T15:23:27.888Z,20.8
2019-04-29T15:28:13.073Z,20.5
2019-04-29T15:33:09.532Z,20.4
2019-04-29T15:38:06.071Z,20.6
2019-04-29T15:43:02.172Z,19.6
2019-04-29T15:47:58.444Z,18.9
2019-04-29T15:52:54.567Z,18.3
2019-04-29T15:57:51.945Z,18.1
2019-04-29T16:02:46.530Z,17.5
2019-04-29T16:07:46.659Z,17.6
2019-04-29T16:12:38.766Z,17.7
2019-04-29T16:17:37.808Z,17.4
2019-04-29T16:22:30.788Z,17.5
2019-04-29T16:27:27.388Z,17.8
2019-04-29T16:32:23.805Z,17
2019-04-29T16:42:16.640Z,16.5
2019-04-29T16:47:13.683Z,15.6
2019-04-29T16:52:09.187Z,14.9
2019-04-29T16:57:05.412Z,14.7
2019-04-29T17:02:01.476Z,14.8
2019-04-29T17:07:11.617Z,14.1
2019-04-29T17:11:56.000Z,14
2019-04-29T17:16:50.289Z,13.6
2019-04-29T17:21:46.656Z,13.1
2019-04-29T17:26:42.702Z,12.8
2019-04-29T17:31:39.327Z,12.6
2019-04-29T17:36:35.232Z,12.4
2019-04-29T17:41:30.999Z,11.9
2019-04-29T17:46:27.405Z,11.8
2019-04-29T17:51:24.766Z,11.7
2019-04-29T17:56:19.870Z,12.2
2019-04-29T18:01:16.291Z,11.7
2019-04-29T18:06:12.699Z,11.6
2019-04-29T18:11:08.919Z,11.3
2019-04-29T18:16:17.245Z,11.3
2019-04-29T18:21:03.007Z,11
2019-04-29T18:25:57.454Z,11.3
2019-04-29T18:30:57.684Z,12.4
2019-04-29T18:35:50.489Z,12
2019-04-29T18:40:49.387Z,11.7
2019-04-29T18:45:53.639Z,12.6
2019-04-29T18:50:40.083Z,13.8
2019-04-29T18:55:36.943Z,14
2019-04-29T19:00:34.846Z,14.2
2019-04-29T19:05:32.270Z,13.9
2019-04-29T19:10:32.797Z,13.9
2019-04-29T19:15:25.512Z,14
2019-04-29T19:20:19.848Z,14
2019-04-29T19:25:16.242Z,14
2019-04-29T19:30:14.210Z,13.3
2019-04-29T19:35:11.213Z,13.6
2019-04-29T19:40:08.033Z,12.9
2019-04-29T19:45:06.167Z,12.9
2019-04-29T19:49:58.246Z,13.3
2019-04-29T19:54:57.287Z,13.3
2019-04-29T19:59:54.099Z,13.2
2019-04-29T20:04:52.173Z,13
2019-04-29T20:09:47.287Z,13.6
2019-04-29T20:14:41.499Z,14
2019-04-29T20:19:38.061Z,13.9
2019-04-29T20:24:36.013Z,14.5
2019-04-29T20:29:33.612Z,14.4
2019-04-29T20:34:28.367Z,14.3
2019-04-29T20:39:26.117Z,14
2019-04-29T20:44:21.061Z,13.8
2019-04-29T20:49:17.753Z,13.4
2019-04-29T20:54:17.425Z,13.2
2019-04-29T20:59:12.738Z,13
2019-04-29T21:04:06.209Z,13.3
2019-04-29T21:09:02.375Z,13.2
2019-04-29T21:13:58.715Z,12.6
2019-04-29T21:18:56.732Z,12.1
2019-04-29T21:23:51.167Z,12.1
2019-04-29T21:28:47.562Z,11.6
2019-04-29T21:33:45.463Z,11.4
2019-04-29T21:38:40.004Z,11.7
2019-04-29T21:43:36.418Z,11.7
2019-04-29T21:48:33.648Z,11.7
2019-04-29T21:53:31.513Z,11
2019-04-29T21:58:28.573Z,11.1
2019-04-29T22:03:24.473Z,11.2
2019-04-29T22:08:20.356Z,11.3
2019-04-29T22:13:14.934Z,12.2
2019-04-29T22:18:13.598Z,12.3
2019-04-29T22:23:12.842Z,12.5
2019-04-29T22:28:05.064Z,11.9
2019-04-29T22:33:00.219Z,11.7
2019-04-29T22:37:56.723Z,11.6
2019-04-29T22:42:53.027Z,11.8
2019-04-29T22:47:49.487Z,12
2019-04-29T22:52:45.807Z,11.7
2019-04-29T22:57:41.604Z,11.7
2019-04-29T23:02:38.064Z,11.7
2019-04-29T23:07:35.218Z,11.3
2019-04-29T23:12:30.532Z,11
2019-04-29T23:17:26.758Z,11.4
2019-04-29T23:22:24.436Z,11.9
2019-04-29T23:27:19.801Z,11.9
2019-04-29T23:32:16.182Z,11.6
2019-04-29T23:37:12.421Z,11.4
2019-04-29T23:42:11.962Z,11
2019-04-29T23:47:10.124Z,10.6
2019-04-29T23:52:01.448Z,10.3
2019-04-29T23:56:57.333Z,9.9
